Time;durP1;ratioP1;P1;durP2;ratioP2;P2;SDS_P1;SDS_P2;PMS_P1;PMS_P2;Temp;Humidity;BMP_temperature;BMP_pressure;BME280_temperature;BME280_humidity;BME280_pressure;Samples;Min_cycle;Max_cycle;Signal;HPM_P1;HPM_P2
2022/03/23 00:01:34;;;;;;;;;;;;;;;;;;5010746;28;943;-68
2022/03/23 00:04:00;;;;;;;;;;;;;;;;;;5010752;28;1137;-68
2022/03/23 00:06:27;;;;;;;;;;;;;;;;;;5010725;28;1070;-68
2022/03/23 00:08:53;;;;;;;;;;;;;;;;;;5010494;28;2039;-70
2022/03/23 00:11:21;;;;;;;;;;;;;;;;;;5010683;28;1002;-67
2022/03/23 00:13:47;;;;;;;;;;;;;;;;;;5010586;28;820;-69
2022/03/23 00:16:13;;;;;;;;;;;;;;;;;;5010395;28;1074;-68
2022/03/23 00:18:40;;;;;;;;;;;;;;;;;;5010110;28;1310;-68
2022/03/23 00:21:06;;;;;;;;;;;;;;;;;;5010173;28;817;-69
2022/03/23 00:23:32;;;;;;;;;;;;;;;;;;5010273;28;1110;-71
2022/03/23 00:25:59;;;;;;;;;;;;;;;;;;5010028;28;1126;-69
2022/03/23 00:28:27;;;;;;;;;;;;;;;;;;5009770;28;1914;-68
2022/03/23 00:30:53;;;;;;;;;;;;;;;;;;5011338;28;824;-69
2022/03/23 00:33:21;;;;;;;;;;;;;;;;;;5014060;28;1078;-68
2022/03/23 00:35:48;;;;;;;;;;;;;;;;;;4996321;28;1035;-68
2022/03/23 00:38:15;;;;;;;;;;;;;;;;;;5013275;28;1386;-69
2022/03/23 00:40:43;;;;;;;;;;;;;;;;;;5013951;28;773;-69
2022/03/23 00:43:09;;;;;;;;;;;;;;;;;;4996566;28;1331;-69
2022/03/23 00:45:37;;;;;;;;;;;;;;;;;;4996762;28;1055;-69
2022/03/23 00:48:03;;;;;;;;;;;;;;;;;;5013528;28;1403;-66
2022/03/23 00:50:30;;;;;;;;;;;;;;;;;;4998658;28;1538;-68
2022/03/23 00:52:56;;;;;;;;;;;;;;;;;;4996144;28;1137;-68
2022/03/23 00:55:22;;;;;;;;;;;;;;;;;;4996068;28;1323;-68
2022/03/23 00:57:50;;;;;;;;;;;;;;;;;;5013807;28;1337;-67
2022/03/23 01:00:16;;;;;;;;;;;;;;;;;;5014012;28;1071;-67
2022/03/23 01:02:46;;;;;;;;;;;;;;;;;;5014008;28;848;-67
2022/03/23 01:05:14;;;;;;;;;;;;;;;;;;5014305;28;812;-67
2022/03/23 01:07:41;;;;;;;;;;;;;;;;;;5013477;28;1338;-67
2022/03/23 01:10:11;;;;;;;;;;;;;;;;;;5013631;28;1922;-67
2022/03/23 01:12:38;;;;;;;;;;;;;;;;;;5013636;28;1081;-68
2022/03/23 01:15:04;;;;;;;;;;;;;;;;;;4995735;28;1188;-69
2022/03/23 01:17:31;;;;;;;;;;;;;;;;;;4995739;28;1422;-67
2022/03/23 01:19:58;;;;;;;;;;;;;;;;;;4996029;28;1343;-67
2022/03/23 01:22:26;;;;;;;;;;;;;;;;;;5013515;28;777;-68
2022/03/23 01:24:52;;;;;;;;;;;;;;;;;;4995743;28;1155;-68
2022/03/23 01:27:18;;;;;;;;;;;;;;;;;;5013055;28;1314;-67
2022/03/23 01:29:44;;;;;;;;;;;;;;;;;;4995513;28;1978;-68
2022/03/23 01:32:11;;;;;;;;;;;;;;;;;;4995197;28;1208;-67
2022/03/23 01:34:37;;;;;;;;;;;;;;;;;;4995384;28;1349;-67
2022/03/23 01:37:04;;;;;;;;;;;;;;;;;;5012888;28;1412;-67
2022/03/23 01:39:31;;;;;;;;;;;;;;;;;;4995153;28;1567;-67
2022/03/23 01:41:57;;;;;;;;;;;;;;;;;;4994445;28;1038;-68
2022/03/23 01:44:24;;;;;;;;;;;;;;;;;;4994767;28;1276;-66
2022/03/23 01:47:00;;;;;;;;;;;;;;;;;;5012394;28;1321;-67
2022/03/23 01:49:27;;;;;;;;;;;;;;;;;;5012373;28;1975;-66
2022/03/23 01:51:53;;;;;;;;;;;;;;;;;;5012622;28;1124;-68
2022/03/23 01:54:20;;;;;;;;;;;;;;;;;;5012923;28;1062;-68
2022/03/23 01:56:47;;;;;;;;;;;;;;;;;;4994533;28;1333;-68
2022/03/23 01:59:13;;;;;;;;;;;;;;;;;;4995363;28;939;-67
2022/03/23 02:01:39;;;;;;;;;;;;;;;;;;4994978;28;1124;-68
2022/03/23 02:04:08;;;;;;;;;;;;;;;;;;4994863;28;1215;-69
2022/03/23 02:06:34;;;;;;;;;;;;;;;;;;4994692;28;1713;-67
2022/03/23 02:09:00;;;;;;;;;;;;;;;;;;4994721;28;1918;-67
2022/03/23 02:11:29;;;;;;;;;;;;;;;;;;4994947;28;1330;-67
2022/03/23 02:13:55;;;;;;;;;;;;;;;;;;4994789;28;1209;-67
2022/03/23 02:16:21;;;;;;;;;;;;;;;;;;5012345;28;931;-66
2022/03/23 02:18:47;;;;;;;;;;;;;;;;;;4994687;28;1371;-66
2022/03/23 02:21:14;;;;;;;;;;;;;;;;;;4994793;28;1455;-66
2022/03/23 02:23:41;;;;;;;;;;;;;;;;;;4994301;28;1117;-66
2022/03/23 02:26:07;;;;;;;;;;;;;;;;;;5012147;28;805;-63
2022/03/23 02:28:34;;;;;;;;;;;;;;;;;;5012201;28;1335;-67
2022/03/23 02:31:01;;;;;;;;;;;;;;;;;;5011990;28;1910;-66
2022/03/23 02:33:27;;;;;;;;;;;;;;;;;;5016192;28;2548;-71
2022/03/23 02:35:54;;;;;;;;;;;;;;;;;;5022859;28;1579;-69
2022/03/23 02:38:20;;;;;;;;;;;;;;;;;;5031365;28;1282;-69
2022/03/23 02:40:47;;;;;;;;;;;;;;;;;;5031687;28;1061;-66
2022/03/23 02:43:14;;;;;;;;;;;;;;;;;;5031271;28;967;-68
2022/03/23 02:45:40;;;;;;;;;;;;;;;;;;5031416;28;1070;-69
2022/03/23 02:48:07;;;;;;;;;;;;;;;;;;5031068;28;1396;-69
2022/03/23 02:50:33;;;;;;;;;;;;;;;;;;5011755;28;1923;-69
2022/03/23 03:04:05;;;;;;;;;;;;;;;;;;5011382;28;947;-67
2022/03/23 03:06:31;;;;;;;;;;;;;;;;;;5011161;28;1070;-69
2022/03/23 03:08:57;;;;;;;;;;;;;;;;;;5011008;28;1906;-69
2022/03/23 03:11:25;;;;;;;;;;;;;;;;;;5011138;28;1121;-69
2022/03/23 03:13:53;;;;;;;;;;;;;;;;;;5010887;28;959;-68
2022/03/23 03:16:19;;;;;;;;;;;;;;;;;;5010995;28;1171;-68
2022/03/23 03:18:46;;;;;;;;;;;;;;;;;;5011319;28;1325;-68
2022/03/23 03:21:13;;;;;;;;;;;;;;;;;;5011070;28;1078;-68
2022/03/23 03:23:40;;;;;;;;;;;;;;;;;;5013278;28;1003;-68
2022/03/23 03:26:06;;;;;;;;;;;;;;;;;;4993588;28;1416;-68
2022/03/23 03:28:33;;;;;;;;;;;;;;;;;;5011174;28;1370;-70
2022/03/23 03:31:01;;;;;;;;;;;;;;;;;;5011381;28;1930;-68
2022/03/23 03:33:27;;;;;;;;;;;;;;;;;;5011233;28;1125;-68
2022/03/23 03:35:53;;;;;;;;;;;;;;;;;;5011275;28;777;-69
2022/03/23 03:38:19;;;;;;;;;;;;;;;;;;5010770;28;1373;-69
2022/03/23 03:40:46;;;;;;;;;;;;;;;;;;5011045;28;1062;-68
2022/03/23 03:43:12;;;;;;;;;;;;;;;;;;5011145;28;1074;-69
2022/03/23 03:45:38;;;;;;;;;;;;;;;;;;5010909;28;1117;-67
2022/03/23 03:48:06;;;;;;;;;;;;;;;;;;5010862;28;1388;-66
2022/03/23 03:50:32;;;;;;;;;;;;;;;;;;5010692;28;1980;-70
2022/03/23 03:52:58;;;;;;;;;;;;;;;;;;5010690;28;1089;-68
2022/03/23 03:55:25;;;;;;;;;;;;;;;;;;5010279;28;887;-69
2022/03/23 03:57:51;;;;;;;;;;;;;;;;;;5010695;28;1319;-68
2022/03/23 04:00:17;;;;;;;;;;;;;;;;;;5010783;28;1126;-68
2022/03/23 04:02:43;;;;;;;;;;;;;;;;;;5010506;28;987;-69
2022/03/23 04:05:11;;;;;;;;;;;;;;;;;;5009883;28;1469;-67
2022/03/23 04:07:37;;;;;;;;;;;;;;;;;;5009948;28;1411;-66
2022/03/23 04:10:03;;;;;;;;;;;;;;;;;;5011491;28;1919;-68
2022/03/23 04:12:29;;;;;;;;;;;;;;;;;;5010465;28;805;-67
2022/03/23 04:14:56;;;;;;;;;;;;;;;;;;5010494;28;1077;-67
2022/03/23 04:17:22;;;;;;;;;;;;;;;;;;5010002;28;1310;-67
2022/03/23 04:19:48;;;;;;;;;;;;;;;;;;5010267;28;943;-66
2022/03/23 04:22:15;;;;;;;;;;;;;;;;;;5010389;28;1169;-67
2022/03/23 04:24:42;;;;;;;;;;;;;;;;;;5010606;28;1173;-67
2022/03/23 04:27:08;;;;;;;;;;;;;;;;;;5009788;28;1389;-67
2022/03/23 04:29:34;;;;;;;;;;;;;;;;;;5010275;28;1981;-66
2022/03/23 04:32:00;;;;;;;;;;;;;;;;;;5010586;28;1117;-67
2022/03/23 04:34:26;;;;;;;;;;;;;;;;;;5010282;28;896;-67
2022/03/23 04:36:53;;;;;;;;;;;;;;;;;;5010162;28;1391;-67
2022/03/23 04:39:20;;;;;;;;;;;;;;;;;;5010292;28;911;-67
2022/03/23 04:41:46;;;;;;;;;;;;;;;;;;5010493;28;1113;-67
2022/03/23 04:44:13;;;;;;;;;;;;;;;;;;5010284;28;935;-67
2022/03/23 04:46:39;;;;;;;;;;;;;;;;;;5009789;28;1321;-65
2022/03/23 04:49:05;;;;;;;;;;;;;;;;;;5010153;28;1114;-67
2022/03/23 04:51:31;;;;;;;;;;;;;;;;;;5010272;28;1985;-67
2022/03/23 04:53:57;;;;;;;;;;;;;;;;;;5010317;28;788;-67
2022/03/23 04:56:25;;;;;;;;;;;;;;;;;;5009999;28;1055;-66
2022/03/23 04:58:51;;;;;;;;;;;;;;;;;;5010190;28;1393;-67
2022/03/23 05:01:17;;;;;;;;;;;;;;;;;;5012490;28;1990;-67
2022/03/23 05:03:44;;;;;;;;;;;;;;;;;;5010400;28;1106;-67
2022/03/23 05:06:10;;;;;;;;;;;;;;;;;;5009922;28;822;-67
2022/03/23 05:08:36;;;;;;;;;;;;;;;;;;5009551;28;1264;-68
2022/03/23 05:11:03;;;;;;;;;;;;;;;;;;5009830;28;1969;-68
2022/03/23 05:13:30;;;;;;;;;;;;;;;;;;5009824;28;1101;-68
2022/03/23 05:15:56;;;;;;;;;;;;;;;;;;5004648;28;1196;-69
2022/03/23 05:18:22;;;;;;;;;;;;;;;;;;5029975;28;1444;-69
2022/03/23 05:20:49;;;;;;;;;;;;;;;;;;5032329;28;1204;-67
2022/03/23 05:23:15;;;;;;;;;;;;;;;;;;5032221;28;1164;-67
2022/03/23 05:25:41;;;;;;;;;;;;;;;;;;5032532;28;1255;-67
2022/03/23 05:28:08;;;;;;;;;;;;;;;;;;5032187;28;1476;-67
2022/03/23 05:30:36;;;;;;;;;;;;;;;;;;5032888;28;1969;-67
2022/03/23 05:33:02;;;;;;;;;;;;;;;;;;5032936;28;796;-66
2022/03/23 05:35:28;;;;;;;;;;;;;;;;;;5032734;28;1077;-68
2022/03/23 05:37:54;;;;;;;;;;;;;;;;;;5032550;28;1312;-67
2022/03/23 05:40:21;;;;;;;;;;;;;;;;;;5032665;28;1062;-67
2022/03/23 05:42:47;;;;;;;;;;;;;;;;;;5033014;28;1018;-68
2022/03/23 05:45:13;;;;;;;;;;;;;;;;;;5032988;28;848;-68
2022/03/23 05:47:41;;;;;;;;;;;;;;;;;;5032760;28;1376;-68
2022/03/23 05:50:08;;;;;;;;;;;;;;;;;;5032849;28;1914;-68
2022/03/23 05:52:34;;;;;;;;;;;;;;;;;;5032638;28;1058;-68
2022/03/23 05:55:01;;;;;;;;;;;;;;;;;;5032795;28;1086;-68
2022/03/23 05:57:27;;;;;;;;;;;;;;;;;;5032454;28;1387;-69
2022/03/23 05:59:53;;;;;;;;;;;;;;;;;;5034144;28;951;-69
2022/03/23 06:02:19;;;;;;;;;;;;;;;;;;5032491;28;1010;-68
2022/03/23 06:04:47;;;;;;;;;;;;;;;;;;5032529;28;1074;-68
2022/03/23 06:07:13;;;;;;;;;;;;;;;;;;5032057;28;1321;-68
2022/03/23 06:09:39;;;;;;;;;;;;;;;;;;5032722;28;1078;-68
2022/03/23 06:12:07;;;;;;;;;;;;;;;;;;5032600;28;1910;-68
2022/03/23 06:14:34;;;;;;;;;;;;;;;;;;5032533;28;1077;-68
2022/03/23 06:17:00;;;;;;;;;;;;;;;;;;5032234;28;1336;-69
2022/03/23 06:19:26;;;;;;;;;;;;;;;;;;5031778;28;1070;-67
2022/03/23 06:21:54;;;;;;;;;;;;;;;;;;5032152;28;1007;-68
2022/03/23 06:24:20;;;;;;;;;;;;;;;;;;5032121;28;820;-68
2022/03/23 06:26:46;;;;;;;;;;;;;;;;;;5031860;28;1327;-68
2022/03/23 06:29:12;;;;;;;;;;;;;;;;;;5031556;28;1461;-68
2022/03/23 06:31:39;;;;;;;;;;;;;;;;;;5031096;28;1918;-67
2022/03/23 06:34:07;;;;;;;;;;;;;;;;;;5031167;28;1251;-69
2022/03/23 06:36:35;;;;;;;;;;;;;;;;;;5030905;28;1255;-68
2022/03/23 06:39:02;;;;;;;;;;;;;;;;;;5031319;28;1403;-68
2022/03/23 06:41:29;;;;;;;;;;;;;;;;;;5031870;28;832;-68
2022/03/23 06:43:55;;;;;;;;;;;;;;;;;;5032012;28;995;-68
2022/03/23 06:46:21;;;;;;;;;;;;;;;;;;5029740;28;774;-68
2022/03/23 06:48:47;;;;;;;;;;;;;;;;;;5029676;28;1277;-68
2022/03/23 06:51:14;;;;;;;;;;;;;;;;;;5029400;28;1910;-68
2022/03/23 06:53:40;;;;;;;;;;;;;;;;;;5029864;28;1019;-68
2022/03/23 06:56:08;;;;;;;;;;;;;;;;;;5029810;28;1077;-68
2022/03/23 06:58:34;;;;;;;;;;;;;;;;;;5029861;28;1269;-68
2022/03/23 07:01:00;;;;;;;;;;;;;;;;;;5030925;28;869;-68
2022/03/23 07:03:27;;;;;;;;;;;;;;;;;;5031360;28;1073;-68
2022/03/23 07:05:53;;;;;;;;;;;;;;;;;;5031026;28;769;-68
2022/03/23 07:11:03;;;;;;;;;;;;;;;;;;5017913;28;1918;-69
2022/03/23 07:13:30;;;;;;;;;;;;;;;;;;5011689;28;911;-68
2022/03/23 07:15:57;;;;;;;;;;;;;;;;;;5011351;28;919;-69
2022/03/23 07:18:23;;;;;;;;;;;;;;;;;;5010885;28;1323;-69
2022/03/23 07:20:49;;;;;;;;;;;;;;;;;;5011425;28;946;-68
2022/03/23 07:23:15;;;;;;;;;;;;;;;;;;5011459;28;967;-68
2022/03/23 07:25:41;;;;;;;;;;;;;;;;;;5011526;28;825;-68
2022/03/23 07:28:08;;;;;;;;;;;;;;;;;;5011071;28;1347;-69
2022/03/23 07:30:35;;;;;;;;;;;;;;;;;;5010914;28;1915;-68
2022/03/23 07:33:01;;;;;;;;;;;;;;;;;;5010915;28;821;-70
2022/03/23 07:35:28;;;;;;;;;;;;;;;;;;5010722;28;796;-68
2022/03/23 07:37:54;;;;;;;;;;;;;;;;;;5010677;28;1375;-70
2022/03/23 07:40:20;;;;;;;;;;;;;;;;;;5010235;28;833;-68
2022/03/23 07:42:47;;;;;;;;;;;;;;;;;;5010648;28;824;-68
2022/03/23 07:45:14;;;;;;;;;;;;;;;;;;5010730;28;888;-69
2022/03/23 07:47:41;;;;;;;;;;;;;;;;;;5010587;28;1415;-69
2022/03/23 07:50:08;;;;;;;;;;;;;;;;;;5010878;28;1057;-69
2022/03/23 07:52:34;;;;;;;;;;;;;;;;;;5010611;28;1985;-69
2022/03/23 07:55:01;;;;;;;;;;;;;;;;;;5010733;28;755;-69
2022/03/23 07:57:27;;;;;;;;;;;;;;;;;;5010024;28;1305;-69
2022/03/23 07:59:55;;;;;;;;;;;;;;;;;;4992821;28;1210;-69
2022/03/23 08:02:21;;;;;;;;;;;;;;;;;;5010143;28;849;-69
2022/03/23 08:04:48;;;;;;;;;;;;;;;;;;5010572;28;1104;-69
2022/03/23 08:07:14;;;;;;;;;;;;;;;;;;5010314;28;1313;-69
2022/03/23 08:09:41;;;;;;;;;;;;;;;;;;5010844;28;1082;-69
2022/03/23 08:12:07;;;;;;;;;;;;;;;;;;5010549;28;1974;-69
2022/03/23 08:14:33;;;;;;;;;;;;;;;;;;5010648;28;1062;-69
2022/03/23 08:16:59;;;;;;;;;;;;;;;;;;5010029;28;1397;-69
2022/03/23 08:19:25;;;;;;;;;;;;;;;;;;5010643;28;959;-70
2022/03/23 08:21:53;;;;;;;;;;;;;;;;;;5010767;28;1090;-70
2022/03/23 08:24:20;;;;;;;;;;;;;;;;;;5010700;28;863;-69
2022/03/23 08:26:46;;;;;;;;;;;;;;;;;;5010174;28;1385;-70
2022/03/23 08:29:12;;;;;;;;;;;;;;;;;;5010673;28;801;-69
2022/03/23 08:31:39;;;;;;;;;;;;;;;;;;5010692;28;1919;-69
2022/03/23 08:34:05;;;;;;;;;;;;;;;;;;5008599;28;1607;-68
2022/03/23 08:36:32;;;;;;;;;;;;;;;;;;5020151;28;1331;-68
2022/03/23 08:39:00;;;;;;;;;;;;;;;;;;5027994;28;1288;-69
2022/03/23 08:41:27;;;;;;;;;;;;;;;;;;5029572;28;1214;-70
2022/03/23 08:43:53;;;;;;;;;;;;;;;;;;5029755;28;971;-69
2022/03/23 08:46:19;;;;;;;;;;;;;;;;;;5029331;28;1074;-67
2022/03/23 08:48:46;;;;;;;;;;;;;;;;;;5029844;28;1298;-70
2022/03/23 08:51:12;;;;;;;;;;;;;;;;;;5029738;28;1918;-70
2022/03/23 08:53:42;;;;;;;;;;;;;;;;;;5033485;28;1217;-67
2022/03/23 08:56:10;;;;;;;;;;;;;;;;;;5033409;28;929;-68
2022/03/23 08:58:37;;;;;;;;;;;;;;;;;;5033412;28;1296;-68
2022/03/23 09:01:03;;;;;;;;;;;;;;;;;;5033648;28;891;-68
2022/03/23 09:03:29;;;;;;;;;;;;;;;;;;5025289;28;1412;-67
2022/03/23 09:05:55;;;;;;;;;;;;;;;;;;5013707;28;884;-68
2022/03/23 09:08:22;;;;;;;;;;;;;;;;;;5013111;28;1318;-67
2022/03/23 09:10:48;;;;;;;;;;;;;;;;;;5013515;28;1915;-69
2022/03/23 09:13:15;;;;;;;;;;;;;;;;;;5013312;28;1116;-69
2022/03/23 09:15:41;;;;;;;;;;;;;;;;;;5013439;28;841;-68
2022/03/23 09:18:08;;;;;;;;;;;;;;;;;;5012976;28;1404;-68
2022/03/23 09:20:34;;;;;;;;;;;;;;;;;;5013729;28;943;-69
2022/03/23 09:23:00;;;;;;;;;;;;;;;;;;5013605;28;1133;-68
2022/03/23 09:25:27;;;;;;;;;;;;;;;;;;5013462;28;1114;-68
2022/03/23 09:27:53;;;;;;;;;;;;;;;;;;5013054;28;1349;-68
2022/03/23 09:30:21;;;;;;;;;;;;;;;;;;5025631;28;1151;-68
2022/03/23 09:32:47;;;;;;;;;;;;;;;;;;5032898;28;1983;-69
2022/03/23 09:35:14;;;;;;;;;;;;;;;;;;5032832;28;1070;-66
2022/03/23 09:37:49;;;;;;;;;;;;;;;;;;5032516;28;1308;-69
2022/03/23 09:40:16;;;;;;;;;;;;;;;;;;5032819;28;1121;-68
2022/03/23 09:42:43;;;;;;;;;;;;;;;;;;5033118;28;785;-68
2022/03/23 09:45:10;;;;;;;;;;;;;;;;;;5032885;28;1106;-69
2022/03/23 09:47:38;;;;;;;;;;;;;;;;;;5032362;28;1302;-68
2022/03/23 09:50:05;;;;;;;;;;;;;;;;;;5032624;28;1070;-68
2022/03/23 09:52:31;;;;;;;;;;;;;;;;;;5032453;28;1914;-68
2022/03/23 09:54:57;;;;;;;;;;;;;;;;;;5031464;28;1557;-69
2022/03/23 09:57:23;;;;;;;;;;;;;;;;;;5032020;28;1399;-68
2022/03/23 09:59:49;;;;;;;;;;;;;;;;;;5032477;28;860;-68
2022/03/23 10:02:43;;;;;;;;;;;;;;;;;;5032244;28;1078;-69
2022/03/23 10:05:27;;;;;;;;;;;;;;;;;;5031524;28;891;-69
2022/03/23 10:07:56;;;;;;;;;;;;;;;;;;5014012;28;1457;-68
2022/03/23 10:10:42;;;;;;;;;;;;;;;;;;5033431;28;1110;-68
2022/03/23 10:13:27;;;;;;;;;;;;;;;;;;5031835;28;1919;-68
2022/03/23 10:16:12;;;;;;;;;;;;;;;;;;5032244;28;924;-68
2022/03/23 10:18:49;;;;;;;;;;;;;;;;;;5031965;28;1439;-67
2022/03/23 10:21:15;;;;;;;;;;;;;;;;;;5032117;28;1078;-67
2022/03/23 10:23:51;;;;;;;;;;;;;;;;;;5032042;28;963;-68
2022/03/23 10:26:18;;;;;;;;;;;;;;;;;;5031629;28;647;-68
2022/03/23 10:28:44;;;;;;;;;;;;;;;;;;5031959;28;1271;-67
2022/03/23 10:31:14;;;;;;;;;;;;;;;;;;5031311;28;1979;-69
2022/03/23 10:33:40;;;;;;;;;;;;;;;;;;5032206;28;1105;-68
2022/03/23 10:36:07;;;;;;;;;;;;;;;;;;5031635;28;1078;-67
2022/03/23 10:38:37;;;;;;;;;;;;;;;;;;5031776;28;1301;-68
2022/03/23 10:41:09;;;;;;;;;;;;;;;;;;5031831;28;1085;-68
2022/03/23 10:43:36;;;;;;;;;;;;;;;;;;5032000;28;788;-69
2022/03/23 10:46:07;;;;;;;;;;;;;;;;;;5031781;28;1065;-68
2022/03/23 10:48:33;;;;;;;;;;;;;;;;;;5031496;28;1359;-67
2022/03/23 10:50:59;;;;;;;;;;;;;;;;;;5031564;28;967;-67
2022/03/23 10:53:30;;;;;;;;;;;;;;;;;;5030283;28;1979;-68
2022/03/23 10:55:56;;;;;;;;;;;;;;;;;;5031410;28;995;-69
2022/03/23 10:58:25;;;;;;;;;;;;;;;;;;5031230;28;1385;-68
2022/03/23 11:00:51;;;;;;;;;;;;;;;;;;5019479;28;1467;-68
2022/03/23 11:03:17;;;;;;;;;;;;;;;;;;5011781;28;710;-68
2022/03/23 11:05:44;;;;;;;;;;;;;;;;;;5011389;28;1070;-68
2022/03/23 11:08:11;;;;;;;;;;;;;;;;;;5010356;28;1374;-69
2022/03/23 11:16:07;;;;;;;;;;;;;;;;;;5010956;28;971;-66
2022/03/23 11:18:33;;;;;;;;;;;;;;;;;;5010699;28;1385;-68
2022/03/23 11:21:00;;;;;;;;;;;;;;;;;;5011005;28;1086;-69
2022/03/23 11:23:27;;;;;;;;;;;;;;;;;;5010725;28;1086;-68
2022/03/23 11:25:53;;;;;;;;;;;;;;;;;;5010766;28;785;-68
2022/03/23 11:28:20;;;;;;;;;;;;;;;;;;5010310;28;1397;-68
2022/03/23 11:30:47;;;;;;;;;;;;;;;;;;5027081;28;1188;-65
2022/03/23 11:33:14;;;;;;;;;;;;;;;;;;5030381;28;1914;-68
2022/03/23 11:35:45;;;;;;;;;;;;;;;;;;5030504;28;1062;-68
2022/03/23 11:38:11;;;;;;;;;;;;;;;;;;5030082;28;1314;-68
2022/03/23 11:40:37;;;;;;;;;;;;;;;;;;5030552;28;1073;-68
2022/03/23 11:43:03;;;;;;;;;;;;;;;;;;5030581;28;1070;-68
2022/03/23 11:45:31;;;;;;;;;;;;;;;;;;5030704;28;1023;-68
2022/03/23 11:47:58;;;;;;;;;;;;;;;;;;5030650;28;1476;-69
2022/03/23 11:50:29;;;;;;;;;;;;;;;;;;5030576;28;1074;-68
2022/03/23 11:52:56;;;;;;;;;;;;;;;;;;5030684;28;1930;-69
2022/03/23 11:55:40;;;;;;;;;;;;;;;;;;5030794;28;1073;-69
2022/03/23 11:58:10;;;;;;;;;;;;;;;;;;5030478;28;1407;-68
2022/03/23 12:00:38;;;;;;;;;;;;;;;;;;5030650;28;1062;-68
2022/03/23 12:03:04;;;;;;;;;;;;;;;;;;5030429;28;1137;-69
2022/03/23 12:05:33;;;;;;;;;;;;;;;;;;5030807;28;853;-68
2022/03/23 12:07:59;;;;;;;;;;;;;;;;;;5030136;28;1309;-68
2022/03/23 12:10:27;;;;;;;;;;;;;;;;;;5030652;28;773;-69
2022/03/23 12:12:53;;;;;;;;;;;;;;;;;;5030385;28;1918;-69
2022/03/23 12:15:26;;;;;;;;;;;;;;;;;;5030147;28;747;-69
2022/03/23 12:17:58;;;;;;;;;;;;;;;;;;5029979;28;1306;-69
2022/03/23 12:20:27;;;;;;;;;;;;;;;;;;5029782;28;919;-69
2022/03/23 12:22:56;;;;;;;;;;;;;;;;;;5029822;28;1078;-69
2022/03/23 12:25:24;;;;;;;;;;;;;;;;;;5029901;28;1070;-68
2022/03/23 12:27:51;;;;;;;;;;;;;;;;;;5032699;28;1302;-68
2022/03/23 12:30:19;;;;;;;;;;;;;;;;;;5034216;28;1163;-69
2022/03/23 12:32:45;;;;;;;;;;;;;;;;;;5034138;28;1082;-66
2022/03/23 12:35:12;;;;;;;;;;;;;;;;;;5034061;28;943;-69
2022/03/23 12:37:39;;;;;;;;;;;;;;;;;;5033315;28;1313;-68
2022/03/23 12:40:11;;;;;;;;;;;;;;;;;;5016212;28;1224;-69
2022/03/23 12:42:40;;;;;;;;;;;;;;;;;;5034178;28;1931;-69
2022/03/23 12:45:10;;;;;;;;;;;;;;;;;;5033758;28;1058;-68
2022/03/23 12:47:37;;;;;;;;;;;;;;;;;;5033502;28;1285;-68
2022/03/23 12:58:39;;;;;;;;;;;;;;;;;;5024242;28;1348;-69
2022/03/23 13:01:09;;;;;;;;;;;;;;;;;;5033700;28;1057;-68
2022/03/23 13:03:50;;;;;;;;;;;;;;;;;;5033495;28;1981;-68
2022/03/23 13:06:17;;;;;;;;;;;;;;;;;;5033050;28;927;-69
2022/03/23 13:08:47;;;;;;;;;;;;;;;;;;5033405;28;1385;-69
2022/03/23 13:11:16;;;;;;;;;;;;;;;;;;5021568;28;1519;-69
2022/03/23 13:13:43;;;;;;;;;;;;;;;;;;5013537;28;1000;-69
2022/03/23 13:16:09;;;;;;;;;;;;;;;;;;5013020;28;1634;-66
2022/03/23 13:18:36;;;;;;;;;;;;;;;;;;5013537;28;1301;-69
2022/03/23 13:21:02;;;;;;;;;;;;;;;;;;5013750;28;1074;-69
2022/03/23 13:23:28;;;;;;;;;;;;;;;;;;5013507;28;1914;-68
2022/03/23 13:26:02;;;;;;;;;;;;;;;;;;5013482;28;896;-69
2022/03/23 13:28:30;;;;;;;;;;;;;;;;;;5012935;28;1361;-68
2022/03/23 13:30:58;;;;;;;;;;;;;;;;;;5030305;28;1191;-69
2022/03/23 13:33:26;;;;;;;;;;;;;;;;;;5032642;28;1067;-68
2022/03/23 13:35:54;;;;;;;;;;;;;;;;;;5032664;28;1081;-70
2022/03/23 13:38:20;;;;;;;;;;;;;;;;;;5031198;28;1321;-69
2022/03/23 13:43:34;;;;;;;;;;;;;;;;;;5032921;28;1918;-66
2022/03/23 13:46:01;;;;;;;;;;;;;;;;;;5032895;28;958;-69
2022/03/23 13:48:30;;;;;;;;;;;;;;;;;;5032338;28;1316;-68
2022/03/23 13:50:56;;;;;;;;;;;;;;;;;;5032493;28;1047;-69
2022/03/23 13:53:22;;;;;;;;;;;;;;;;;;5032909;28;958;-69
2022/03/23 13:55:50;;;;;;;;;;;;;;;;;;5032645;28;1074;-69
2022/03/23 13:58:17;;;;;;;;;;;;;;;;;;5031907;28;1365;-69
2022/03/23 14:00:45;;;;;;;;;;;;;;;;;;5032454;28;1078;-69
2022/03/23 14:03:11;;;;;;;;;;;;;;;;;;5032291;28;1971;-67
2022/03/23 14:05:37;;;;;;;;;;;;;;;;;;5032411;28;797;-68
2022/03/23 14:08:05;;;;;;;;;;;;;;;;;;5031647;28;1337;-68
2022/03/23 14:10:33;;;;;;;;;;;;;;;;;;5032426;28;1477;-68
2022/03/23 14:13:03;;;;;;;;;;;;;;;;;;5032613;28;1182;-69
2022/03/23 14:15:31;;;;;;;;;;;;;;;;;;5032669;28;864;-69
2022/03/23 14:17:59;;;;;;;;;;;;;;;;;;5031813;28;1330;-69
2022/03/23 14:20:26;;;;;;;;;;;;;;;;;;5032079;28;1070;-69
2022/03/23 14:22:53;;;;;;;;;;;;;;;;;;5032166;28;1958;-68
2022/03/23 14:25:20;;;;;;;;;;;;;;;;;;5031643;28;1063;-68
2022/03/23 14:27:49;;;;;;;;;;;;;;;;;;5032061;28;1321;-69
2022/03/23 14:30:16;;;;;;;;;;;;;;;;;;5032390;28;1183;-69
2022/03/23 14:32:43;;;;;;;;;;;;;;;;;;5032295;28;1078;-69
2022/03/23 14:35:11;;;;;;;;;;;;;;;;;;5032143;28;754;-69
2022/03/23 14:37:38;;;;;;;;;;;;;;;;;;5025223;28;1920;-69
2022/03/23 14:40:19;;;;;;;;;;;;;;;;;;5020229;28;1237;-69
2022/03/23 14:42:45;;;;;;;;;;;;;;;;;;5013467;28;1914;-69
2022/03/23 14:45:25;;;;;;;;;;;;;;;;;;5031465;28;954;-69
2022/03/23 14:47:52;;;;;;;;;;;;;;;;;;5030985;28;1309;-69
2022/03/23 14:50:19;;;;;;;;;;;;;;;;;;5031289;28;1136;-69
2022/03/23 14:52:45;;;;;;;;;;;;;;;;;;5031616;28;1064;-69
2022/03/23 14:55:11;;;;;;;;;;;;;;;;;;5031153;28;1141;-69
2022/03/23 14:57:38;;;;;;;;;;;;;;;;;;5030808;28;1323;-68
2022/03/23 15:00:05;;;;;;;;;;;;;;;;;;5030953;28;1199;-69
2022/03/23 15:02:32;;;;;;;;;;;;;;;;;;5031402;28;1919;-68
2022/03/23 15:04:58;;;;;;;;;;;;;;;;;;5031040;28;730;-69
2022/03/23 15:15:43;;;;;;;;;;;;;;;;;;5030798;28;868;-68
2022/03/23 15:18:09;;;;;;;;;;;;;;;;;;5030557;28;1477;-69
2022/03/23 15:20:36;;;;;;;;;;;;;;;;;;5022466;28;1488;-69
2022/03/23 15:23:03;;;;;;;;;;;;;;;;;;5011310;28;1895;-69
2022/03/23 15:25:29;;;;;;;;;;;;;;;;;;5011511;28;888;-69
2022/03/23 15:27:56;;;;;;;;;;;;;;;;;;5010985;28;1308;-68
2022/03/23 15:30:23;;;;;;;;;;;;;;;;;;5011098;28;793;-68
2022/03/23 15:32:49;;;;;;;;;;;;;;;;;;5011068;28;1078;-69
2022/03/23 15:35:17;;;;;;;;;;;;;;;;;;5010996;28;898;-68
2022/03/23 15:37:43;;;;;;;;;;;;;;;;;;5011032;28;1401;-69
2022/03/23 15:40:11;;;;;;;;;;;;;;;;;;5011234;28;1134;-68
2022/03/23 15:45:23;;;;;;;;;;;;;;;;;;5011046;28;831;-68
2022/03/23 15:47:49;;;;;;;;;;;;;;;;;;5010639;28;1410;-69
2022/03/23 15:50:16;;;;;;;;;;;;;;;;;;5010586;28;1113;-69
2022/03/23 15:52:42;;;;;;;;;;;;;;;;;;5010727;28;1070;-69
2022/03/23 15:55:09;;;;;;;;;;;;;;;;;;5010936;28;660;-69
2022/03/23 15:57:36;;;;;;;;;;;;;;;;;;5010707;28;1400;-68
2022/03/23 16:00:03;;;;;;;;;;;;;;;;;;5010565;28;754;-68
2022/03/23 16:02:35;;;;;;;;;;;;;;;;;;5010106;28;780;-68
2022/03/23 16:05:02;;;;;;;;;;;;;;;;;;5010288;28;1977;-68
2022/03/23 16:07:28;;;;;;;;;;;;;;;;;;5009824;28;1323;-69
2022/03/23 16:09:54;;;;;;;;;;;;;;;;;;5011792;28;892;-69
2022/03/23 16:12:20;;;;;;;;;;;;;;;;;;5010271;28;1091;-70
2022/03/23 16:14:48;;;;;;;;;;;;;;;;;;4993155;28;828;-70
2022/03/23 16:17:15;;;;;;;;;;;;;;;;;;5009986;28;1313;-71
2022/03/23 16:19:42;;;;;;;;;;;;;;;;;;5010677;28;1274;-69
2022/03/23 16:22:08;;;;;;;;;;;;;;;;;;5010615;28;1078;-69
2022/03/23 16:24:34;;;;;;;;;;;;;;;;;;5010152;28;1914;-69
2022/03/23 16:27:00;;;;;;;;;;;;;;;;;;5009641;28;1311;-68
2022/03/23 16:29:27;;;;;;;;;;;;;;;;;;5010607;28;898;-70
2022/03/23 16:31:54;;;;;;;;;;;;;;;;;;5010495;28;1002;-69
2022/03/23 16:34:21;;;;;;;;;;;;;;;;;;5010420;28;955;-69
2022/03/23 16:36:48;;;;;;;;;;;;;;;;;;5010098;28;1395;-69
2022/03/23 16:39:15;;;;;;;;;;;;;;;;;;5010407;28;1054;-68
2022/03/23 16:41:41;;;;;;;;;;;;;;;;;;5010612;28;876;-69
2022/03/23 16:44:10;;;;;;;;;;;;;;;;;;5010454;28;1915;-68
2022/03/23 16:46:36;;;;;;;;;;;;;;;;;;5009910;28;910;-68
2022/03/23 16:49:04;;;;;;;;;;;;;;;;;;5010363;28;1297;-66
2022/03/23 16:51:30;;;;;;;;;;;;;;;;;;5010314;28;936;-67
2022/03/23 16:53:57;;;;;;;;;;;;;;;;;;4992917;28;1236;-67
2022/03/23 16:56:23;;;;;;;;;;;;;;;;;;5010083;28;896;-68
2022/03/23 16:58:49;;;;;;;;;;;;;;;;;;5010548;28;1405;-69
2022/03/23 17:01:16;;;;;;;;;;;;;;;;;;5010859;28;1132;-68
2022/03/23 17:14:38;;;;;;;;;;;;;;;;;;5013717;28;999;-68
2022/03/23 17:17:05;;;;;;;;;;;;;;;;;;5013213;28;1315;-68
2022/03/23 17:19:35;;;;;;;;;;;;;;;;;;5013452;28;1137;-68
2022/03/23 17:22:03;;;;;;;;;;;;;;;;;;5013112;28;1106;-68
2022/03/23 17:24:29;;;;;;;;;;;;;;;;;;5015778;28;1926;-69
2022/03/23 17:26:55;;;;;;;;;;;;;;;;;;5012958;28;1300;-68
2022/03/23 17:29:21;;;;;;;;;;;;;;;;;;5013177;28;1074;-69
2022/03/23 17:31:47;;;;;;;;;;;;;;;;;;5013050;28;976;-68
2022/03/23 17:34:13;;;;;;;;;;;;;;;;;;5013199;28;1121;-68
2022/03/23 17:36:40;;;;;;;;;;;;;;;;;;5012921;28;803;-69
2022/03/23 17:39:07;;;;;;;;;;;;;;;;;;5013117;28;1342;-68
2022/03/23 17:41:35;;;;;;;;;;;;;;;;;;5013083;28;961;-66
2022/03/23 17:44:01;;;;;;;;;;;;;;;;;;5013097;28;1915;-68
2022/03/23 17:46:27;;;;;;;;;;;;;;;;;;5012694;28;1062;-68
2022/03/23 17:48:54;;;;;;;;;;;;;;;;;;5013412;28;1312;-67
2022/03/23 17:51:20;;;;;;;;;;;;;;;;;;5013165;28;1082;-68
2022/03/23 17:53:46;;;;;;;;;;;;;;;;;;5012963;28;810;-68
2022/03/23 17:56:14;;;;;;;;;;;;;;;;;;5012532;28;1062;-68
2022/03/23 17:58:41;;;;;;;;;;;;;;;;;;5012922;28;1380;-68
2022/03/23 18:01:08;;;;;;;;;;;;;;;;;;5012391;28;893;-69